sensor_id;sensor_type;location;lat;lon;timestamp;pressure;altitude;pressure_sealevel;temperature;humidity
4346;BME280;2186;49.866;7.986;2023-10-19T00:01:08;98457.00;;;12.13;100.00
4346;BME280;2186;49.866;7.986;2023-10-19T00:03:38;98448.44;;;12.22;100.00
4346;BME280;2186;49.866;7.986;2023-10-19T00:06:04;98450.53;;;12.17;100.00
4346;BME280;2186;49.866;7.986;2023-10-19T00:08:31;98441.28;;;12.23;100.00
4346;BME280;2186;49.866;7.986;2023-10-19T00:11:08;98440.25;;;12.25;100.00
4346;BME280;2186;49.866;7.986;2023-10-19T00:13:36;98446.09;;;12.30;100.00
4346;BME280;2186;49.866;7.986;2023-10-19T00:16:05;98441.53;;;12.32;100.00
4346;BME280;2186;49.866;7.986;2023-10-19T00:18:44;98436.19;;;12.32;100.00
4346;BME280;2186;49.866;7.986;2023-10-19T00:21:10;98435.16;;;12.35;100.00
4346;BME280;2186;49.866;7.986;2023-10-19T00:23:47;98428.72;;;12.25;100.00
4346;BME280;2186;49.866;7.986;2023-10-19T00:26:14;98433.75;;;12.29;100.00
4346;BME280;2186;49.866;7.986;2023-10-19T00:28:43;98431.50;;;12.23;100.00
4346;BME280;2186;49.866;7.986;2023-10-19T00:31:12;98429.38;;;12.28;100.00
4346;BME280;2186;49.866;7.986;2023-10-19T00:33:39;98426.50;;;12.31;100.00
4346;BME280;2186;49.866;7.986;2023-10-19T00:36:08;98425.09;;;12.26;100.00
4346;BME280;2186;49.866;7.986;2023-10-19T00:38:35;98425.22;;;12.24;100.00
4346;BME280;2186;49.866;7.986;2023-10-19T00:41:02;98423.03;;;12.43;100.00
4346;BME280;2186;49.866;7.986;2023-10-19T00:43:34;98422.81;;;12.34;100.00
4346;BME280;2186;49.866;7.986;2023-10-19T00:46:09;98421.00;;;12.34;100.00
4346;BME280;2186;49.866;7.986;2023-10-19T00:48:45;98421.00;;;12.34;100.00
4346;BME280;2186;49.866;7.986;2023-10-19T00:51:14;98417.81;;;12.42;100.00
4346;BME280;2186;49.866;7.986;2023-10-19T00:54:08;98411.53;;;12.43;100.00
4346;BME280;2186;49.866;7.986;2023-10-19T00:56:37;98418.38;;;12.60;100.00
4346;BME280;2186;49.866;7.986;2023-10-19T00:59:07;98413.72;;;12.63;100.00
4346;BME280;2186;49.866;7.986;2023-10-19T01:01:41;98414.91;;;12.72;100.00
4346;BME280;2186;49.866;7.986;2023-10-19T01:04:12;98407.66;;;12.74;100.00
4346;BME280;2186;49.866;7.986;2023-10-19T01:06:47;98410.84;;;12.66;100.00
4346;BME280;2186;49.866;7.986;2023-10-19T01:09:33;98407.22;;;12.67;100.00
4346;BME280;2186;49.866;7.986;2023-10-19T01:12:05;98404.44;;;12.69;100.00
4346;BME280;2186;49.866;7.986;2023-10-19T01:15:10;98399.13;;;12.69;100.00
4346;BME280;2186;49.866;7.986;2023-10-19T01:17:41;98408.41;;;12.63;100.00
4346;BME280;2186;49.866;7.986;2023-10-19T01:20:13;98401.16;;;12.65;100.00
4346;BME280;2186;49.866;7.986;2023-10-19T01:25:46;98391.66;;;12.61;100.00
4346;BME280;2186;49.866;7.986;2023-10-19T01:28:32;98388.78;;;12.64;100.00
4346;BME280;2186;49.866;7.986;2023-10-19T01:31:09;98391.50;;;12.50;100.00
4346;BME280;2186;49.866;7.986;2023-10-19T01:33:41;98380.88;;;12.63;100.00
4346;BME280;2186;49.866;7.986;2023-10-19T01:36:08;98384.94;;;12.68;100.00
4346;BME280;2186;49.866;7.986;2023-10-19T01:38:38;98381.19;;;12.58;100.00
4346;BME280;2186;49.866;7.986;2023-10-19T01:41:06;98376.59;;;12.60;100.00
4346;BME280;2186;49.866;7.986;2023-10-19T01:43:46;98379.06;;;12.63;100.00
4346;BME280;2186;49.866;7.986;2023-10-19T01:46:16;98384.41;;;12.63;100.00
4346;BME280;2186;49.866;7.986;2023-10-19T01:48:49;98384.50;;;12.62;100.00
4346;BME280;2186;49.866;7.986;2023-10-19T01:51:25;98381.53;;;12.66;100.00
4346;BME280;2186;49.866;7.986;2023-10-19T01:53:53;98386.00;;;12.66;100.00
4346;BME280;2186;49.866;7.986;2023-10-19T01:56:22;98382.47;;;12.65;100.00
4346;BME280;2186;49.866;7.986;2023-10-19T01:58:49;98375.44;;;12.64;100.00
4346;BME280;2186;49.866;7.986;2023-10-19T02:01:18;98371.81;;;12.65;100.00
4346;BME280;2186;49.866;7.986;2023-10-19T02:04:05;98375.44;;;12.64;100.00
4346;BME280;2186;49.866;7.986;2023-10-19T02:06:34;98375.56;;;12.63;100.00
4346;BME280;2186;49.866;7.986;2023-10-19T02:11:45;98365.94;;;12.48;100.00
4346;BME280;2186;49.866;7.986;2023-10-19T02:14:14;98370.09;;;12.52;100.00
4346;BME280;2186;49.866;7.986;2023-10-19T02:16:46;98359.53;;;12.50;100.00
4346;BME280;2186;49.866;7.986;2023-10-19T02:19:14;98358.19;;;12.30;100.00
4346;BME280;2186;49.866;7.986;2023-10-19T02:21:40;98352.25;;;12.39;100.00
4346;BME280;2186;49.866;7.986;2023-10-19T02:24:08;98350.13;;;12.44;100.00
4346;BME280;2186;49.866;7.986;2023-10-19T02:26:35;98342.69;;;12.50;100.00
4346;BME280;2186;49.866;7.986;2023-10-19T02:29:04;98343.34;;;12.53;100.00
4346;BME280;2186;49.866;7.986;2023-10-19T02:31:34;98343.66;;;12.49;100.00
4346;BME280;2186;49.866;7.986;2023-10-19T02:34:04;98340.66;;;12.53;100.00
4346;BME280;2186;49.866;7.986;2023-10-19T02:36:31;98342.91;;;12.59;100.00
4346;BME280;2186;49.866;7.986;2023-10-19T02:39:00;98340.34;;;12.58;100.00
4346;BME280;2186;49.866;7.986;2023-10-19T02:41:27;98344.41;;;12.63;100.00
4346;BME280;2186;49.866;7.986;2023-10-19T02:43:54;98347.50;;;12.57;100.00
4346;BME280;2186;49.866;7.986;2023-10-19T02:46:37;98350.25;;;12.56;100.00
4346;BME280;2186;49.866;7.986;2023-10-19T02:49:10;98346.75;;;12.55;100.00
4346;BME280;2186;49.866;7.986;2023-10-19T02:51:42;98339.72;;;12.54;100.00
4346;BME280;2186;49.866;7.986;2023-10-19T02:54:17;98339.38;;;12.59;100.00
4346;BME280;2186;49.866;7.986;2023-10-19T02:56:56;98340.25;;;12.59;100.00
4346;BME280;2186;49.866;7.986;2023-10-19T02:59:27;98341.94;;;12.60;100.00
4346;BME280;2186;49.866;7.986;2023-10-19T03:02:00;98337.47;;;12.61;100.00
4346;BME280;2186;49.866;7.986;2023-10-19T03:04:44;98334.81;;;12.61;100.00
4346;BME280;2186;49.866;7.986;2023-10-19T03:07:13;98322.13;;;12.64;100.00
4346;BME280;2186;49.866;7.986;2023-10-19T03:09:41;98337.56;;;12.59;100.00
4346;BME280;2186;49.866;7.986;2023-10-19T03:12:15;98338.13;;;12.64;100.00
4346;BME280;2186;49.866;7.986;2023-10-19T03:14:43;98333.09;;;12.60;100.00
4346;BME280;2186;49.866;7.986;2023-10-19T03:17:10;98338.44;;;12.60;100.00
4346;BME280;2186;49.866;7.986;2023-10-19T03:19:36;98336.94;;;12.56;100.00
4346;BME280;2186;49.866;7.986;2023-10-19T03:22:03;98334.69;;;12.50;100.00
4346;BME280;2186;49.866;7.986;2023-10-19T03:24:32;98336.94;;;12.56;100.00
4346;BME280;2186;49.866;7.986;2023-10-19T03:27:12;98325.19;;;12.58;100.00
4346;BME280;2186;49.866;7.986;2023-10-19T03:29:42;98315.72;;;12.54;100.00
4346;BME280;2186;49.866;7.986;2023-10-19T03:32:13;98301.97;;;12.48;100.00
4346;BME280;2186;49.866;7.986;2023-10-19T03:34:40;98292.06;;;12.50;100.00
4346;BME280;2186;49.866;7.986;2023-10-19T03:37:12;98291.41;;;12.59;100.00
4346;BME280;2186;49.866;7.986;2023-10-19T03:39:41;98281.06;;;12.54;100.00
4346;BME280;2186;49.866;7.986;2023-10-19T03:42:08;98282.44;;;12.60;100.00
4346;BME280;2186;49.866;7.986;2023-10-19T03:44:34;98274.47;;;12.60;100.00
4346;BME280;2186;49.866;7.986;2023-10-19T03:47:20;98272.00;;;12.57;100.00
4346;BME280;2186;49.866;7.986;2023-10-19T03:49:51;98281.28;;;12.51;100.00
4346;BME280;2186;49.866;7.986;2023-10-19T03:52:18;98288.66;;;12.48;100.00
4346;BME280;2186;49.866;7.986;2023-10-19T03:54:45;98282.56;;;12.45;100.00
4346;BME280;2186;49.866;7.986;2023-10-19T03:57:14;98279.00;;;12.32;100.00
4346;BME280;2186;49.866;7.986;2023-10-19T03:59:46;98278.41;;;12.41;100.00
4346;BME280;2186;49.866;7.986;2023-10-19T04:02:16;98276.19;;;12.48;100.00
4346;BME280;2186;49.866;7.986;2023-10-19T04:04:43;98273.78;;;12.31;100.00
4346;BME280;2186;49.866;7.986;2023-10-19T04:07:11;98264.06;;;12.17;100.00
4346;BME280;2186;49.866;7.986;2023-10-19T04:09:43;98263.25;;;12.29;100.00
4346;BME280;2186;49.866;7.986;2023-10-19T04:12:28;98266.47;;;12.34;100.00
4346;BME280;2186;49.866;7.986;2023-10-19T04:14:58;98256.34;;;12.39;100.00
4346;BME280;2186;49.866;7.986;2023-10-19T04:17:57;98262.09;;;12.46;100.00
4346;BME280;2186;49.866;7.986;2023-10-19T04:20:26;98279.59;;;12.50;100.00
4346;BME280;2186;49.866;7.986;2023-10-19T04:22:53;98266.78;;;12.55;100.00
4346;BME280;2186;49.866;7.986;2023-10-19T04:25:23;98271.38;;;12.53;100.00
4346;BME280;2186;49.866;7.986;2023-10-19T04:27:53;98263.16;;;12.56;100.00
4346;BME280;2186;49.866;7.986;2023-10-19T04:30:20;98260.50;;;12.43;100.00
4346;BME280;2186;49.866;7.986;2023-10-19T04:32:50;98256.66;;;12.22;100.00
4346;BME280;2186;49.866;7.986;2023-10-19T04:35:17;98246.53;;;12.27;100.00
4346;BME280;2186;49.866;7.986;2023-10-19T04:37:51;98255.88;;;12.33;100.00
4346;BME280;2186;49.866;7.986;2023-10-19T04:40:19;98253.25;;;12.45;100.00
4346;BME280;2186;49.866;7.986;2023-10-19T04:42:47;98251.03;;;12.52;100.00
4346;BME280;2186;49.866;7.986;2023-10-19T04:45:14;98249.00;;;12.56;100.00
4346;BME280;2186;49.866;7.986;2023-10-19T04:47:41;98245.34;;;12.57;100.00
4346;BME280;2186;49.866;7.986;2023-10-19T04:50:08;98256.13;;;12.55;100.00
4346;BME280;2186;49.866;7.986;2023-10-19T04:52:37;98249.06;;;12.29;100.00
4346;BME280;2186;49.866;7.986;2023-10-19T04:55:04;98261.56;;;12.41;100.00
4346;BME280;2186;49.866;7.986;2023-10-19T04:57:31;98246.88;;;12.48;100.00
4346;BME280;2186;49.866;7.986;2023-10-19T04:59:57;98253.56;;;12.54;100.00
4346;BME280;2186;49.866;7.986;2023-10-19T05:02:24;98258.91;;;12.66;100.00
4346;BME280;2186;49.866;7.986;2023-10-19T05:04:51;98254.44;;;12.54;100.00
4346;BME280;2186;49.866;7.986;2023-10-19T05:07:17;98255.72;;;12.61;100.00
4346;BME280;2186;49.866;7.986;2023-10-19T05:09:44;98251.41;;;12.84;100.00
4346;BME280;2186;49.866;7.986;2023-10-19T05:12:12;98252.72;;;12.66;100.00
4346;BME280;2186;49.866;7.986;2023-10-19T05:14:41;98252.63;;;12.67;100.00
4346;BME280;2186;49.866;7.986;2023-10-19T05:17:08;98265.94;;;12.93;100.00
4346;BME280;2186;49.866;7.986;2023-10-19T05:19:39;98266.91;;;12.66;100.00
4346;BME280;2186;49.866;7.986;2023-10-19T05:22:08;98256.88;;;12.57;100.00
4346;BME280;2186;49.866;7.986;2023-10-19T05:24:35;98253.78;;;12.51;100.00
4346;BME280;2186;49.866;7.986;2023-10-19T05:27:02;98255.72;;;12.61;100.00
4346;BME280;2186;49.866;7.986;2023-10-19T05:29:31;98250.69;;;12.57;100.00
4346;BME280;2186;49.866;7.986;2023-10-19T05:31:58;98251.13;;;12.51;100.00
4346;BME280;2186;49.866;7.986;2023-10-19T05:34:24;98253.91;;;12.62;100.00
4346;BME280;2186;49.866;7.986;2023-10-19T05:36:53;98253.91;;;12.62;100.00
4346;BME280;2186;49.866;7.986;2023-10-19T05:39:20;98249.00;;;12.68;100.00
4346;BME280;2186;49.866;7.986;2023-10-19T05:41:47;98242.47;;;12.72;100.00
4346;BME280;2186;49.866;7.986;2023-10-19T05:44:13;98241.44;;;12.75;100.00
4346;BME280;2186;49.866;7.986;2023-10-19T05:46:40;98248.13;;;12.81;100.00
4346;BME280;2186;49.866;7.986;2023-10-19T05:49:07;98241.84;;;12.82;100.00
4346;BME280;2186;49.866;7.986;2023-10-19T05:51:34;98248.63;;;12.98;100.00
4346;BME280;2186;49.866;7.986;2023-10-19T05:54:00;98247.16;;;12.94;100.00
4346;BME280;2186;49.866;7.986;2023-10-19T05:56:30;98243.63;;;12.94;100.00
4346;BME280;2186;49.866;7.986;2023-10-19T05:58:57;98245.44;;;12.93;100.00
4346;BME280;2186;49.866;7.986;2023-10-19T06:01:24;98239.03;;;12.96;100.00
4346;BME280;2186;49.866;7.986;2023-10-19T06:03:50;98234.91;;;12.79;100.00
4346;BME280;2186;49.866;7.986;2023-10-19T06:06:19;98259.41;;;12.97;100.00
4346;BME280;2186;49.866;7.986;2023-10-19T06:08:46;98246.75;;;12.75;100.00
4346;BME280;2186;49.866;7.986;2023-10-19T06:11:12;98256.53;;;12.87;100.00
4346;BME280;2186;49.866;7.986;2023-10-19T06:13:39;98269.44;;;13.19;100.00
4346;BME280;2186;49.866;7.986;2023-10-19T06:16:06;98256.84;;;13.08;100.00
4346;BME280;2186;49.866;7.986;2023-10-19T06:18:33;98275.31;;;12.98;100.00
4346;BME280;2186;49.866;7.986;2023-10-19T06:20:59;98268.25;;;13.10;100.00
4346;BME280;2186;49.866;7.986;2023-10-19T06:23:25;98260.47;;;13.07;100.00
4346;BME280;2186;49.866;7.986;2023-10-19T06:25:52;98261.44;;;13.19;100.00
4346;BME280;2186;49.866;7.986;2023-10-19T06:28:18;98260.03;;;13.13;100.00
4346;BME280;2186;49.866;7.986;2023-10-19T06:30:45;98263.66;;;12.99;100.00
4346;BME280;2186;49.866;7.986;2023-10-19T06:33:14;98276.88;;;13.01;100.00
4346;BME280;2186;49.866;7.986;2023-10-19T06:35:41;98267.97;;;13.02;100.00
4346;BME280;2186;49.866;7.986;2023-10-19T06:38:07;98259.00;;;13.03;100.00
4346;BME280;2186;49.866;7.986;2023-10-19T06:40:35;98263.88;;;13.09;100.00
4346;BME280;2186;49.866;7.986;2023-10-19T06:43:04;98264.41;;;13.01;100.00
4346;BME280;2186;49.866;7.986;2023-10-19T06:45:34;98261.44;;;13.19;100.00
4346;BME280;2186;49.866;7.986;2023-10-19T06:48:00;98258.97;;;13.16;100.00
4346;BME280;2186;49.866;7.986;2023-10-19T06:50:27;98257.69;;;13.21;100.00
4346;BME280;2186;49.866;7.986;2023-10-19T06:52:53;98264.63;;;13.24;100.00
4346;BME280;2186;49.866;7.986;2023-10-19T06:55:21;98266.19;;;13.14;100.00
4346;BME280;2186;49.866;7.986;2023-10-19T06:57:50;98266.19;;;13.14;100.00
4346;BME280;2186;49.866;7.986;2023-10-19T07:00:19;98263.25;;;13.18;100.00
4346;BME280;2186;49.866;7.986;2023-10-19T07:02:47;98265.47;;;13.24;100.00
4346;BME280;2186;49.866;7.986;2023-10-19T07:05:14;98263.16;;;13.20;100.00
4346;BME280;2186;49.866;7.986;2023-10-19T07:07:45;98257.94;;;13.18;100.00
4346;BME280;2186;49.866;7.986;2023-10-19T07:10:13;98249.91;;;13.18;100.00
4346;BME280;2186;49.866;7.986;2023-10-19T07:12:45;98242.44;;;13.23;100.00
4346;BME280;2186;49.866;7.986;2023-10-19T07:15:13;98244.25;;;13.23;100.00
4346;BME280;2186;49.866;7.986;2023-10-19T07:17:46;98252.88;;;13.26;100.00
4346;BME280;2186;49.866;7.986;2023-10-19T07:20:15;98249.44;;;13.37;100.00
4346;BME280;2186;49.866;7.986;2023-10-19T07:23:01;98258.91;;;13.41;100.00
4346;BME280;2186;49.866;7.986;2023-10-19T07:25:45;98260.09;;;13.37;100.00
4346;BME280;2186;49.866;7.986;2023-10-19T07:28:15;98265.00;;;13.43;100.00
4346;BME280;2186;49.866;7.986;2023-10-19T07:30:43;98265.75;;;13.45;100.00
4346;BME280;2186;49.866;7.986;2023-10-19T07:33:11;98263.69;;;13.49;100.00
4346;BME280;2186;49.866;7.986;2023-10-19T07:35:44;98265.06;;;13.54;100.00
4346;BME280;2186;49.866;7.986;2023-10-19T07:38:13;98246.66;;;13.62;100.00
4346;BME280;2186;49.866;7.986;2023-10-19T07:40:40;98247.34;;;13.77;100.00
4346;BME280;2186;49.866;7.986;2023-10-19T07:43:06;98245.72;;;13.63;100.00
4346;BME280;2186;49.866;7.986;2023-10-19T07:45:34;98254.81;;;13.85;100.00
4346;BME280;2186;49.866;7.986;2023-10-19T07:48:03;98240.41;;;13.99;100.00
4346;BME280;2186;49.866;7.986;2023-10-19T07:50:37;98254.88;;;13.83;100.00
4346;BME280;2186;49.866;7.986;2023-10-19T07:53:06;98252.41;;;13.69;100.00
4346;BME280;2186;49.866;7.986;2023-10-19T07:55:33;98259.13;;;13.75;100.00
4346;BME280;2186;49.866;7.986;2023-10-19T07:57:59;98271.38;;;13.77;100.00
4346;BME280;2186;49.866;7.986;2023-10-19T08:00:26;98255.41;;;13.88;100.00
4346;BME280;2186;49.866;7.986;2023-10-19T08:02:55;98253.00;;;13.85;100.00
4346;BME280;2186;49.866;7.986;2023-10-19T08:05:22;98273.16;;;13.89;100.00
4346;BME280;2186;49.866;7.986;2023-10-19T08:07:49;98272.47;;;13.99;100.00
4346;BME280;2186;49.866;7.986;2023-10-19T08:10:16;98274.53;;;14.06;100.00
4346;BME280;2186;49.866;7.986;2023-10-19T08:12:44;98270.97;;;13.94;100.00
4346;BME280;2186;49.866;7.986;2023-10-19T08:15:14;98272.94;;;14.28;100.00
4346;BME280;2186;49.866;7.986;2023-10-19T08:17:43;98255.72;;;14.43;100.00
4346;BME280;2186;49.866;7.986;2023-10-19T08:20:11;98257.97;;;14.25;100.00
4346;BME280;2186;49.866;7.986;2023-10-19T08:22:54;98255.94;;;14.29;100.00
4346;BME280;2186;49.866;7.986;2023-10-19T08:25:24;98251.94;;;14.34;100.00
4346;BME280;2186;49.866;7.986;2023-10-19T08:27:54;98247.31;;;14.36;100.00
4346;BME280;2186;49.866;7.986;2023-10-19T08:30:23;98241.63;;;14.41;100.00
4346;BME280;2186;49.866;7.986;2023-10-19T08:32:53;98233.56;;;14.76;100.00
4346;BME280;2186;49.866;7.986;2023-10-19T08:35:21;98227.72;;;14.71;100.00
4346;BME280;2186;49.866;7.986;2023-10-19T08:37:55;98227.47;;;14.74;100.00
4346;BME280;2186;49.866;7.986;2023-10-19T08:40:26;98228.44;;;14.73;100.00
4346;BME280;2186;49.866;7.986;2023-10-19T08:42:55;98243.41;;;14.87;100.00
4346;BME280;2186;49.866;7.986;2023-10-19T08:45:22;98241.34;;;14.90;100.00
4346;BME280;2186;49.866;7.986;2023-10-19T08:47:57;98244.03;;;15.01;100.00
4346;BME280;2186;49.866;7.986;2023-10-19T08:50:27;98234.16;;;15.35;100.00
4346;BME280;2186;49.866;7.986;2023-10-19T08:52:59;98231.41;;;15.47;100.00
4346;BME280;2186;49.866;7.986;2023-10-19T08:55:28;98235.34;;;15.43;100.00
4346;BME280;2186;49.866;7.986;2023-10-19T08:58:15;98227.69;;;15.38;100.00
4346;BME280;2186;49.866;7.986;2023-10-19T09:00:48;98228.31;;;15.85;100.00
4346;BME280;2186;49.866;7.986;2023-10-19T09:03:16;98216.53;;;15.76;100.00
4346;BME280;2186;49.866;7.986;2023-10-19T09:05:44;98217.59;;;15.30;100.00
4346;BME280;2186;49.866;7.986;2023-10-19T09:08:18;98207.72;;;15.42;100.00
4346;BME280;2186;49.866;7.986;2023-10-19T09:10:47;98215.28;;;15.37;100.00
4346;BME280;2186;49.866;7.986;2023-10-19T09:13:14;98211.75;;;15.25;100.00
4346;BME280;2186;49.866;7.986;2023-10-19T09:15:45;98198.19;;;15.60;100.00
4346;BME280;2186;49.866;7.986;2023-10-19T09:18:19;98183.72;;;15.84;100.00
4346;BME280;2186;49.866;7.986;2023-10-19T09:20:51;98181.72;;;15.76;100.00
4346;BME280;2186;49.866;7.986;2023-10-19T09:23:23;98180.03;;;15.96;100.00
4346;BME280;2186;49.866;7.986;2023-10-19T09:25:50;98177.34;;;16.17;100.00
4346;BME280;2186;49.866;7.986;2023-10-19T09:28:20;98178.84;;;16.30;100.00
4346;BME280;2186;49.866;7.986;2023-10-19T09:30:46;98178.31;;;16.37;100.00
4346;BME280;2186;49.866;7.986;2023-10-19T09:33:13;98178.13;;;16.49;100.00
4346;BME280;2186;49.866;7.986;2023-10-19T09:35:50;98179.94;;;16.49;100.00
4346;BME280;2186;49.866;7.986;2023-10-19T09:38:20;98182.16;;;16.44;100.00
4346;BME280;2186;49.866;7.986;2023-10-19T09:40:52;98194.91;;;16.51;100.00
4346;BME280;2186;49.866;7.986;2023-10-19T09:43:33;98187.00;;;16.71;100.00
4346;BME280;2186;49.866;7.986;2023-10-19T09:46:06;98188.56;;;17.04;100.00
4346;BME280;2186;49.866;7.986;2023-10-19T09:48:39;98191.38;;;17.02;100.00
4346;BME280;2186;49.866;7.986;2023-10-19T09:51:08;98189.66;;;17.41;100.00
4346;BME280;2186;49.866;7.986;2023-10-19T09:53:45;98185.84;;;17.44;100.00
4346;BME280;2186;49.866;7.986;2023-10-19T09:56:35;98180.19;;;17.47;100.00
4346;BME280;2186;49.866;7.986;2023-10-19T09:59:05;98183.16;;;17.54;100.00
4346;BME280;2186;49.866;7.986;2023-10-19T10:02:08;98195.56;;;16.95;100.00
4346;BME280;2186;49.866;7.986;2023-10-19T10:04:37;98199.09;;;16.86;100.00
4346;BME280;2186;49.866;7.986;2023-10-19T10:07:07;98188.94;;;16.99;100.00
4346;BME280;2186;49.866;7.986;2023-10-19T10:09:40;98191.59;;;17.30;100.00
4346;BME280;2186;49.866;7.986;2023-10-19T10:12:19;98188.75;;;17.22;100.00
4346;BME280;2186;49.866;7.986;2023-10-19T10:15:04;98191.63;;;16.90;100.00
4346;BME280;2186;49.866;7.986;2023-10-19T10:17:38;98188.69;;;17.02;100.00
4346;BME280;2186;49.866;7.986;2023-10-19T10:22:40;98180.31;;;16.96;100.00
4346;BME280;2186;49.866;7.986;2023-10-19T10:25:28;98179.84;;;16.81;100.00
4346;BME280;2186;49.866;7.986;2023-10-19T10:27:56;98178.81;;;17.03;100.00
4346;BME280;2186;49.866;7.986;2023-10-19T10:30:22;98176.16;;;16.82;100.00
4346;BME280;2186;49.866;7.986;2023-10-19T10:32:53;98172.72;;;17.01;100.00
4346;BME280;2186;49.866;7.986;2023-10-19T10:38:09;98164.63;;;16.91;100.00
4346;BME280;2186;49.866;7.986;2023-10-19T10:40:45;98166.94;;;17.05;100.00
4346;BME280;2186;49.866;7.986;2023-10-19T10:43:14;98168.50;;;17.08;100.00
4346;BME280;2186;49.866;7.986;2023-10-19T10:45:42;98168.44;;;17.48;100.00
4346;BME280;2186;49.866;7.986;2023-10-19T10:48:17;98161.22;;;17.29;100.00
4346;BME280;2186;49.866;7.986;2023-10-19T10:50:43;98166.72;;;17.28;100.00
4346;BME280;2186;49.866;7.986;2023-10-19T10:53:13;98172.38;;;17.34;100.00
4346;BME280;2186;49.866;7.986;2023-10-19T10:55:40;98165.81;;;17.77;100.00
4346;BME280;2186;49.866;7.986;2023-10-19T10:58:07;98159.81;;;17.64;100.00
4346;BME280;2186;49.866;7.986;2023-10-19T11:00:41;98163.94;;;17.58;100.00
4346;BME280;2186;49.866;7.986;2023-10-19T11:03:08;98158.59;;;17.97;100.00
4346;BME280;2186;49.866;7.986;2023-10-19T11:05:36;98161.41;;;17.95;100.00
4346;BME280;2186;49.866;7.986;2023-10-19T11:10:30;98154.06;;;17.97;100.00
4346;BME280;2186;49.866;7.986;2023-10-19T11:13:07;98138.75;;;18.08;99.99
4346;BME280;2186;49.866;7.986;2023-10-19T11:15:35;98140.47;;;17.80;100.00
4346;BME280;2186;49.866;7.986;2023-10-19T11:18:04;98144.53;;;18.22;98.70
4346;BME280;2186;49.866;7.986;2023-10-19T11:20:30;98137.34;;;18.03;98.99
4346;BME280;2186;49.866;7.986;2023-10-19T11:22:57;98140.06;;;17.84;99.49
4346;BME280;2186;49.866;7.986;2023-10-19T11:25:28;98137.34;;;18.03;99.20
4346;BME280;2186;49.866;7.986;2023-10-19T11:27:58;98142.97;;;18.20;98.68
4346;BME280;2186;49.866;7.986;2023-10-19T11:30:28;98138.91;;;18.06;100.00
4346;BME280;2186;49.866;7.986;2023-10-19T11:32:55;98133.09;;;18.11;99.25
4346;BME280;2186;49.866;7.986;2023-10-19T11:35:31;98126.22;;;18.35;98.31
4346;BME280;2186;49.866;7.986;2023-10-19T11:37:59;98128.03;;;17.88;99.63
4346;BME280;2186;49.866;7.986;2023-10-19T11:40:27;98127.44;;;18.04;99.57
4346;BME280;2186;49.866;7.986;2023-10-19T11:42:54;98125.16;;;18.19;99.01
4346;BME280;2186;49.866;7.986;2023-10-19T11:45:25;98113.72;;;18.07;99.38
4346;BME280;2186;49.866;7.986;2023-10-19T11:47:52;98117.13;;;17.99;99.29
4346;BME280;2186;49.866;7.986;2023-10-19T11:50:19;98103.63;;;18.19;99.17
4346;BME280;2186;49.866;7.986;2023-10-19T11:52:46;98100.09;;;18.18;99.02
4346;BME280;2186;49.866;7.986;2023-10-19T11:55:13;98107.06;;;18.11;100.00
4346;BME280;2186;49.866;7.986;2023-10-19T11:57:43;98107.09;;;17.92;100.00
4346;BME280;2186;49.866;7.986;2023-10-19T12:00:13;98104.84;;;17.87;100.00
4346;BME280;2186;49.866;7.986;2023-10-19T12:02:50;98105.13;;;17.84;100.00
4346;BME280;2186;49.866;7.986;2023-10-19T12:05:18;98105.69;;;17.78;100.00
4346;BME280;2186;49.866;7.986;2023-10-19T12:07:45;98107.78;;;17.65;100.00
4346;BME280;2186;49.866;7.986;2023-10-19T12:10:11;98113.63;;;17.70;100.00
4346;BME280;2186;49.866;7.986;2023-10-19T12:12:41;98109.81;;;17.72;100.00
4346;BME280;2186;49.866;7.986;2023-10-19T12:15:26;98105.81;;;17.47;100.00
4346;BME280;2186;49.866;7.986;2023-10-19T12:17:52;98116.41;;;17.59;100.00
4346;BME280;2186;49.866;7.986;2023-10-19T12:20:21;98112.16;;;17.66;100.00
4346;BME280;2186;49.866;7.986;2023-10-19T12:22:48;98115.28;;;17.61;100.00
4346;BME280;2186;49.866;7.986;2023-10-19T12:25:18;98106.09;;;17.35;100.00
4346;BME280;2186;49.866;7.986;2023-10-19T12:27:45;98108.75;;;17.15;100.00
4346;BME280;2186;49.866;7.986;2023-10-19T12:30:12;98111.44;;;17.25;100.00
4346;BME280;2186;49.866;7.986;2023-10-19T12:32:48;98092.94;;;17.22;100.00
4346;BME280;2186;49.866;7.986;2023-10-19T12:35:15;98092.38;;;17.28;100.00
4346;BME280;2186;49.866;7.986;2023-10-19T12:37:45;98093.22;;;17.48;100.00
4346;BME280;2186;49.866;7.986;2023-10-19T12:40:18;98089.13;;;17.44;100.00
4346;BME280;2186;49.866;7.986;2023-10-19T12:42:55;98081.47;;;17.39;100.00
4346;BME280;2186;49.866;7.986;2023-10-19T12:45:22;98080.19;;;17.24;100.00
4346;BME280;2186;49.866;7.986;2023-10-19T12:47:48;98076.69;;;17.33;100.00
4346;BME280;2186;49.866;7.986;2023-10-19T12:50:15;98076.69;;;17.33;100.00
4346;BME280;2186;49.866;7.986;2023-10-19T12:52:42;98068.75;;;17.51;100.00
4346;BME280;2186;49.866;7.986;2023-10-19T12:55:08;98067.94;;;17.70;100.00
4346;BME280;2186;49.866;7.986;2023-10-19T12:57:35;98071.44;;;17.61;100.00
4346;BME280;2186;49.866;7.986;2023-10-19T13:00:02;98063.25;;;17.53;100.00
4346;BME280;2186;49.866;7.986;2023-10-19T13:02:47;98065.22;;;17.51;100.00
4346;BME280;2186;49.866;7.986;2023-10-19T13:05:13;98069.31;;;17.64;100.00
4346;BME280;2186;49.866;7.986;2023-10-19T13:07:44;98067.94;;;17.31;100.00
4346;BME280;2186;49.866;7.986;2023-10-19T13:10:11;98064.94;;;17.25;100.00
4346;BME280;2186;49.866;7.986;2023-10-19T13:12:37;98064.69;;;17.57;100.00
4346;BME280;2186;49.866;7.986;2023-10-19T13:15:04;98062.53;;;17.51;100.00
4346;BME280;2186;49.866;7.986;2023-10-19T13:17:39;98070.75;;;17.49;100.00
4346;BME280;2186;49.866;7.986;2023-10-19T13:20:06;98069.06;;;17.58;100.00
4346;BME280;2186;49.866;7.986;2023-10-19T13:22:42;98081.22;;;17.33;100.00
4346;BME280;2186;49.866;7.986;2023-10-19T13:25:09;98071.56;;;17.11;100.00
4346;BME280;2186;49.866;7.986;2023-10-19T13:27:39;98053.50;;;17.61;100.00
4346;BME280;2186;49.866;7.986;2023-10-19T13:30:09;98052.34;;;17.54;100.00
4346;BME280;2186;49.866;7.986;2023-10-19T13:32:38;98053.94;;;17.47;100.00
4346;BME280;2186;49.866;7.986;2023-10-19T13:35:05;98048.25;;;17.50;100.00
4346;BME280;2186;49.866;7.986;2023-10-19T13:37:33;98054.50;;;17.31;100.00
4346;BME280;2186;49.866;7.986;2023-10-19T13:40:00;98048.69;;;17.26;100.00
4346;BME280;2186;49.866;7.986;2023-10-19T13:42:26;98046.13;;;17.54;100.00